createdAt,value
2023-01-01T00:00:20.957Z,14.50
2023-01-01T00:05:47.788Z,14.50
2023-01-01T00:10:52.733Z,14.50
2023-01-01T00:15:56.657Z,14.50
2023-01-01T00:21:05.605Z,14.60
2023-01-01T00:26:15.413Z,14.60
2023-01-01T00:31:22.493Z,14.60
2023-01-01T00:36:28.314Z,14.60
2023-01-01T00:41:32.804Z,14.60
2023-01-01T00:46:38.365Z,14.60
2023-01-01T00:51:47.701Z,14.70
2023-01-01T00:56:51.327Z,14.70
2023-01-01T01:02:03.550Z,14.70
2023-01-01T01:07:07.781Z,14.60
2023-01-01T01:12:17.521Z,14.70
2023-01-01T01:17:22.628Z,14.70
2023-01-01T01:22:28.917Z,14.70
2023-01-01T01:27:33.557Z,14.80
2023-01-01T01:38:09.120Z,14.80
2023-01-01T01:43:25.576Z,14.80
2023-01-01T01:48:30.462Z,14.80
2023-01-01T01:53:39.751Z,14.70
2023-01-01T01:58:43.433Z,14.70
2023-01-01T02:04:00.329Z,14.70
2023-01-01T02:09:07.370Z,14.60
2023-01-01T02:14:11.454Z,14.70
2023-01-01T02:19:33.235Z,14.60
2023-01-01T02:25:03.218Z,14.60
2023-01-01T02:30:10.113Z,14.50
2023-01-01T02:35:35.691Z,14.50
2023-01-01T02:40:45.366Z,14.50
2023-01-01T02:45:54.958Z,14.50
2023-01-01T02:51:03.294Z,14.40
2023-01-01T02:56:28.754Z,14.40
2023-01-01T03:01:50.426Z,14.40
2023-01-01T03:07:19.632Z,14.40
2023-01-01T03:12:47.594Z,14.40
2023-01-01T03:18:12.020Z,14.30
2023-01-01T03:23:27.951Z,14.20
2023-01-01T03:28:55.640Z,14.20
2023-01-01T03:34:11.138Z,14.20
2023-01-01T03:39:21.610Z,14.20
2023-01-01T03:44:44.713Z,14.10
2023-01-01T03:49:48.779Z,14.10
2023-01-01T03:55:21.727Z,14.10
2023-01-01T04:00:31.334Z,13.90
2023-01-01T04:05:41.865Z,13.90
2023-01-01T04:10:59.035Z,14.00
2023-01-01T04:16:02.953Z,13.90
2023-01-01T04:21:06.745Z,13.90
2023-01-01T04:26:15.371Z,13.90
2023-01-01T04:31:21.922Z,13.80
2023-01-01T04:36:25.924Z,13.90
2023-01-01T04:41:30.071Z,13.80
2023-01-01T04:46:33.826Z,13.80
2023-01-01T04:51:37.871Z,13.80
2023-01-01T04:56:41.675Z,13.80
2023-01-01T05:01:45.589Z,13.70
2023-01-01T05:06:49.046Z,13.80
2023-01-01T05:11:54.155Z,13.70
2023-01-01T05:16:57.687Z,13.60
2023-01-01T05:22:06.883Z,13.70
2023-01-01T05:27:14.085Z,13.80
2023-01-01T05:32:19.143Z,13.80
2023-01-01T07:11:17.259Z,13.70
2023-01-01T09:17:02.163Z,15.90
2023-01-01T09:22:15.123Z,15.90
2023-01-01T09:27:19.123Z,16.00
2023-01-01T09:32:24.340Z,16.00
2023-01-01T09:43:40.107Z,16.10
2023-01-01T10:08:04.335Z,16.00
2023-01-01T10:14:44.675Z,15.90
2023-01-01T10:33:16.684Z,16.00
2023-01-01T10:38:58.347Z,16.00
2023-01-01T10:46:17.455Z,16.00
2023-01-01T10:52:11.466Z,16.00
2023-01-01T10:57:00.183Z,16.00
2023-01-01T11:16:25.605Z,16.00
2023-01-01T11:27:34.777Z,16.10
2023-01-01T11:33:04.151Z,16.10
2023-01-01T11:39:01.243Z,16.10
2023-01-01T11:45:24.530Z,16.20
2023-01-01T11:50:34.732Z,16.30
2023-01-01T11:55:56.736Z,16.20
2023-01-01T12:01:40.052Z,16.20
2023-01-01T12:07:15.387Z,16.20
2023-01-01T12:12:46.055Z,16.30
2023-01-01T12:24:38.134Z,16.20
2023-01-01T12:36:27.227Z,16.20
2023-01-01T12:42:15.003Z,16.10
2023-01-01T13:01:07.215Z,16.00
2023-01-01T13:06:17.384Z,16.00
2023-01-01T13:12:33.655Z,15.80
2023-01-01T13:18:16.334Z,15.80
2023-01-01T13:23:46.464Z,15.80
2023-01-01T13:29:02.260Z,15.70
2023-01-01T13:35:11.850Z,15.80
2023-01-01T13:48:16.414Z,15.70
2023-01-01T14:13:40.844Z,15.20
2023-01-01T14:26:58.745Z,15.10
2023-01-01T15:15:34.607Z,14.60
2023-01-01T15:20:54.646Z,14.50
2023-01-01T15:26:08.095Z,14.40
2023-01-01T15:31:24.687Z,14.40
2023-01-01T16:02:33.402Z,13.90
2023-01-01T16:09:00.890Z,13.90
2023-01-01T16:20:21.845Z,13.70
2023-01-01T16:25:53.690Z,13.70
2023-01-01T16:31:01.987Z,13.60
2023-01-01T16:36:06.820Z,13.50
2023-01-01T16:41:35.929Z,13.50
2023-01-01T16:47:02.457Z,13.50
2023-01-01T16:52:14.796Z,13.50
2023-01-01T16:57:24.962Z,13.50
2023-01-01T17:02:32.208Z,13.30
2023-01-01T17:08:08.876Z,13.30
2023-01-01T17:13:27.064Z,13.20
2023-01-01T17:19:29.110Z,13.10
2023-01-01T17:24:45.981Z,13.10
2023-01-01T17:30:00.373Z,13.00
2023-01-01T17:35:33.274Z,13.00
2023-01-01T17:41:08.241Z,12.90
2023-01-01T17:46:34.510Z,12.90
2023-01-01T17:51:42.732Z,12.80
2023-01-01T17:56:54.872Z,12.80
2023-01-01T18:03:41.311Z,12.80
2023-01-01T18:22:31.563Z,12.70
2023-01-01T18:27:43.033Z,12.60
2023-01-01T18:32:59.370Z,12.50
2023-01-01T18:38:16.294Z,12.50
2023-01-01T18:43:28.468Z,12.40
2023-01-01T18:48:32.188Z,12.40
2023-01-01T18:53:37.506Z,12.40
2023-01-01T18:58:48.610Z,12.20
2023-01-01T19:03:59.844Z,12.20
2023-01-01T19:09:34.358Z,12.30
2023-01-01T19:21:24.152Z,12.30
2023-01-01T19:26:42.130Z,12.40
2023-01-01T19:31:50.996Z,12.50
2023-01-01T19:36:58.446Z,12.60
2023-01-01T19:42:05.903Z,12.60
2023-01-01T19:48:04.156Z,12.60
2023-01-01T19:59:19.500Z,12.60
2023-01-01T20:04:38.641Z,12.60
2023-01-01T20:09:57.154Z,12.60
2023-01-01T20:15:18.747Z,12.40
2023-01-01T20:20:33.134Z,12.30
2023-01-01T20:25:41.730Z,12.30
2023-01-01T20:31:04.747Z,12.20
2023-01-01T20:36:38.783Z,12.20
2023-01-01T20:41:55.416Z,12.10
2023-01-01T20:47:18.054Z,12.10
2023-01-01T20:52:29.553Z,12.00
2023-01-01T20:57:39.644Z,11.90
2023-01-01T21:03:03.226Z,11.90
2023-01-01T21:08:10.095Z,11.80
2023-01-01T21:13:18.632Z,11.70
2023-01-01T21:18:26.076Z,11.70
2023-01-01T21:23:32.631Z,11.60
2023-01-01T21:28:36.997Z,11.60
2023-01-01T21:33:48.132Z,11.60
2023-01-01T21:39:14.394Z,11.50
2023-01-01T21:44:41.822Z,11.50
2023-01-01T21:50:20.676Z,11.50
2023-01-01T21:56:14.575Z,11.40
2023-01-01T22:02:35.631Z,11.20
2023-01-01T22:07:59.617Z,11.10
2023-01-01T22:13:15.779Z,10.90
2023-01-01T22:18:24.805Z,10.80
2023-01-01T22:23:34.416Z,10.70
2023-01-01T22:28:43.749Z,10.50
2023-01-01T22:33:49.646Z,10.50
2023-01-01T22:38:58.166Z,10.30
2023-01-01T22:44:04.705Z,10.20
2023-01-01T22:49:31.600Z,10.10
2023-01-01T23:01:55.262Z,9.80
2023-01-01T23:07:44.510Z,9.70
2023-01-01T23:13:35.876Z,9.70
2023-01-01T23:18:52.743Z,9.60
2023-01-01T23:24:22.578Z,9.50
2023-01-01T23:29:36.875Z,9.40
2023-01-01T23:34:47.616Z,9.40
2023-01-01T23:39:55.945Z,9.50
2023-01-01T23:44:59.947Z,9.50
2023-01-01T23:50:04.250Z,9.60
2023-01-01T23:55:08.996Z,9.60
